createdAt,value
2018-01-19T05:00:48.371Z,0
2018-01-19T05:01:13.857Z,0
2018-01-19T05:01:39.318Z,0
2018-01-19T05:02:04.854Z,0
2018-01-19T05:02:30.340Z,0
2018-01-19T05:02:55.835Z,0
2018-01-19T05:03:21.323Z,0
2018-01-19T05:04:40.231Z,0
2018-01-19T05:05:05.709Z,0
2018-01-19T05:05:31.194Z,0
2018-01-19T05:06:55.169Z,0
2018-01-19T05:07:20.646Z,0
2018-01-19T05:07:46.142Z,0
2018-01-19T05:08:11.641Z,0
2018-01-19T05:09:40.733Z,0
2018-01-19T05:10:06.214Z,0
2018-01-19T05:11:14.892Z,0
2018-01-19T05:11:40.378Z,0
2018-01-19T05:12:05.867Z,0
2018-01-19T05:12:31.346Z,0
2018-01-19T05:12:56.786Z,0
2018-01-19T05:13:22.277Z,0
2018-01-19T05:14:36.074Z,0
2018-01-19T05:15:01.566Z,0
2018-01-19T05:15:27.032Z,0
2018-01-19T05:15:52.529Z,0
2018-01-19T05:16:18.006Z,0
2018-01-19T05:16:43.517Z,0
2018-01-19T05:17:09.041Z,0
2018-01-19T05:17:34.510Z,0
2018-01-19T05:18:00.028Z,0
2018-01-19T05:18:25.524Z,0
2018-01-19T05:18:51.011Z,0
2018-01-19T05:19:16.482Z,0
2018-01-19T05:19:41.965Z,0
2018-01-19T05:20:07.406Z,0
2018-01-19T05:20:32.938Z,0
2018-01-19T05:20:58.422Z,0
2018-01-19T05:22:27.544Z,0
2018-01-19T05:22:53.033Z,0
2018-01-19T05:23:18.530Z,0
2018-01-19T05:23:43.998Z,0
2018-01-19T05:24:09.485Z,0
2018-01-19T05:25:18.203Z,0
2018-01-19T05:25:43.719Z,0
2018-01-19T05:26:09.198Z,0
2018-01-19T05:26:34.652Z,0
2018-01-19T05:27:00.133Z,0
2018-01-19T05:27:25.632Z,0
2018-01-19T05:27:51.110Z,0
2018-01-19T05:28:16.592Z,0
2018-01-19T05:28:42.125Z,0
2018-01-19T05:29:07.610Z,0
2018-01-19T05:29:33.079Z,0
2018-01-19T05:29:58.568Z,0
2018-01-19T05:30:24.043Z,0
2018-01-19T05:30:49.513Z,0
2018-01-19T05:31:14.992Z,0
2018-01-19T05:31:40.492Z,0
2018-01-19T05:32:06.013Z,0
2018-01-19T05:32:31.472Z,0
2018-01-19T05:33:40.195Z,0
2018-01-19T05:34:05.694Z,0
2018-01-19T05:34:31.201Z,0
2018-01-19T05:34:56.694Z,0
2018-01-19T05:35:22.167Z,0
2018-01-19T05:35:47.697Z,0
2018-01-19T05:37:17.482Z,0
2018-01-19T05:37:42.962Z,0
2018-01-19T05:38:08.483Z,0
2018-01-19T05:38:33.912Z,0
2018-01-19T05:38:59.370Z,0
2018-01-19T05:39:24.855Z,0
2018-01-19T05:39:50.355Z,0
2018-01-19T05:40:15.813Z,0
2018-01-19T05:40:41.299Z,0
2018-01-19T05:41:06.797Z,0
2018-01-19T05:41:32.231Z,0
2018-01-19T05:41:57.766Z,0
2018-01-19T05:42:23.259Z,0
2018-01-19T05:42:48.757Z,0
2018-01-19T05:43:14.224Z,0
2018-01-19T05:43:39.683Z,0
2018-01-19T05:44:05.120Z,0
2018-01-19T05:44:30.665Z,0
2018-01-19T05:44:56.065Z,0
2018-01-19T05:45:21.515Z,0
2018-01-19T05:45:47.012Z,0
2018-01-19T05:47:05.901Z,0
2018-01-19T05:47:31.383Z,0
2018-01-19T05:47:56.859Z,0
2018-01-19T05:48:22.345Z,0
2018-01-19T05:48:47.847Z,0
2018-01-19T05:49:13.363Z,0
2018-01-19T05:49:38.845Z,0
2018-01-19T05:50:04.338Z,0
2018-01-19T05:50:29.835Z,0
2018-01-19T05:50:55.377Z,0
2018-01-19T05:51:20.863Z,0
2018-01-19T05:51:46.375Z,0
2018-01-19T05:52:11.813Z,0
2018-01-19T05:52:37.272Z,0
2018-01-19T05:53:02.783Z,0
2018-01-19T05:53:28.259Z,0
2018-01-19T05:53:53.736Z,0
2018-01-19T05:54:19.285Z,0
2018-01-19T05:54:44.778Z,0
2018-01-19T05:55:10.292Z,0
2018-01-19T05:55:35.758Z,0
2018-01-19T05:56:01.215Z,0
2018-01-19T05:56:26.682Z,0
2018-01-19T05:56:52.202Z,0
2018-01-19T05:57:17.674Z,0
2018-01-19T05:57:43.142Z,0
2018-01-19T05:58:56.940Z,0
2018-01-19T05:59:22.437Z,0
2018-01-19T05:59:47.952Z,0
2018-01-19T06:00:13.440Z,0
2018-01-19T06:00:38.921Z,0
2018-01-19T06:01:04.406Z,0
2018-01-19T06:01:29.922Z,0
2018-01-19T06:01:55.469Z,0
2018-01-19T06:02:20.949Z,0
2018-01-19T06:03:44.925Z,0
2018-01-19T06:04:10.517Z,0
2018-01-19T06:04:35.927Z,0
2018-01-19T06:05:01.408Z,0
2018-01-19T06:05:26.924Z,0
2018-01-19T06:05:52.418Z,0
2018-01-19T06:06:17.932Z,0
2018-01-19T06:06:43.405Z,0
2018-01-19T06:07:08.892Z,0
2018-01-19T06:07:34.416Z,0
2018-01-19T06:07:59.846Z,0
2018-01-19T06:08:25.357Z,0
2018-01-19T06:08:50.846Z,0
2018-01-19T06:09:16.314Z,0
2018-01-19T06:09:41.797Z,0
2018-01-19T06:10:07.265Z,0
2018-01-19T06:10:32.759Z,0
2018-01-19T06:10:58.208Z,0
2018-01-19T06:11:23.715Z,0
2018-01-19T06:11:49.222Z,0
2018-01-19T06:12:14.765Z,0
2018-01-19T06:12:40.173Z,0
2018-01-19T06:13:05.652Z,0
2018-01-19T06:13:31.129Z,0
2018-01-19T06:13:56.643Z,0
2018-01-19T06:14:22.171Z,0
2018-01-19T06:15:35.974Z,0
2018-01-19T06:16:01.452Z,0
2018-01-19T06:17:30.569Z,0
2018-01-19T06:17:56.084Z,0
2018-01-19T06:18:21.530Z,0
2018-01-19T06:18:47.009Z,0
2018-01-19T06:19:12.533Z,0
2018-01-19T06:19:38.096Z,0
2018-01-19T06:20:03.541Z,0
2018-01-19T06:20:29.218Z,0
2018-01-19T06:20:54.694Z,0
2018-01-19T06:21:20.192Z,0
2018-01-19T06:21:45.670Z,0
2018-01-19T06:22:11.156Z,0
2018-01-19T06:22:36.658Z,0
2018-01-19T06:23:02.181Z,0
2018-01-19T06:23:27.675Z,0
2018-01-19T06:23:53.166Z,0
2018-01-19T06:24:18.680Z,0
2018-01-19T06:24:44.201Z,0
2018-01-19T06:25:09.691Z,0
2018-01-19T06:25:35.170Z,0
2018-01-19T06:26:00.771Z,0
2018-01-19T06:26:26.297Z,0
2018-01-19T06:26:51.771Z,0
2018-01-19T06:27:17.274Z,0
2018-01-19T06:28:41.310Z,0
2018-01-19T06:29:06.816Z,0
2018-01-19T06:29:32.322Z,0
2018-01-19T06:29:57.780Z,0
2018-01-19T06:30:23.375Z,0
2018-01-19T06:30:48.855Z,0
2018-01-19T06:31:14.373Z,0
2018-01-19T06:31:39.867Z,0
2018-01-19T06:32:05.382Z,0
2018-01-19T06:32:30.865Z,0
2018-01-19T06:32:56.330Z,0
2018-01-19T06:33:21.851Z,0
2018-01-19T06:33:47.377Z,0
2018-01-19T06:34:12.873Z,0
2018-01-19T06:35:26.664Z,0
2018-01-19T06:35:52.158Z,0
2018-01-19T06:36:17.627Z,0
2018-01-19T06:37:36.529Z,0
2018-01-19T06:38:02.024Z,0
2018-01-19T06:38:27.478Z,0
2018-01-19T06:38:52.968Z,0
2018-01-19T06:39:18.502Z,0
2018-01-19T06:39:43.979Z,0
2018-01-19T06:40:09.477Z,0
2018-01-19T06:40:34.910Z,0
2018-01-19T06:41:00.343Z,0
2018-01-19T06:41:25.794Z,0
2018-01-19T06:41:51.251Z,0
2018-01-19T06:42:16.773Z,0
2018-01-19T06:42:42.253Z,0
2018-01-19T06:43:07.702Z,0
2018-01-19T06:43:33.200Z,0
2018-01-19T06:43:58.650Z,0
2018-01-19T06:44:24.089Z,0
2018-01-19T06:44:49.648Z,0
2018-01-19T06:45:15.031Z,0
2018-01-19T06:45:40.487Z,0
2018-01-19T06:46:05.974Z,0
2018-01-19T06:46:31.453Z,0
2018-01-19T06:46:56.897Z,0
2018-01-19T06:47:22.341Z,0
2018-01-19T06:47:47.834Z,0
2018-01-19T06:48:13.289Z,0
2018-01-19T06:48:38.709Z,0
2018-01-19T06:49:04.195Z,0
2018-01-19T06:49:29.681Z,0
2018-01-19T06:49:55.128Z,0
2018-01-19T06:50:20.578Z,0
2018-01-19T06:50:46.025Z,0
2018-01-19T06:51:11.454Z,0
2018-01-19T06:51:37.022Z,0
2018-01-19T06:52:02.460Z,0
2018-01-19T06:52:27.972Z,0
2018-01-19T06:52:53.460Z,0
2018-01-19T06:54:02.200Z,0
2018-01-19T06:54:27.700Z,0
2018-01-19T06:54:53.178Z,0
2018-01-19T06:55:18.636Z,0
2018-01-19T06:55:44.085Z,0
2018-01-19T06:56:09.550Z,0
2018-01-19T06:56:35.038Z,0
2018-01-19T06:57:00.484Z,0
2018-01-19T06:57:25.928Z,0
2018-01-19T06:57:51.419Z,0
2018-01-19T06:58:16.895Z,0
2018-01-19T06:58:42.322Z,0
2018-01-19T06:59:07.835Z,0
2018-01-19T06:59:33.275Z,0
2018-01-19T06:59:58.784Z,0
2018-01-19T07:00:24.244Z,0
2018-01-19T07:00:49.712Z,0
2018-01-19T07:01:15.184Z,0
2018-01-19T07:01:40.638Z,0
2018-01-19T07:02:06.097Z,0
2018-01-19T07:02:31.607Z,0
2018-01-19T07:02:57.059Z,0
2018-01-19T07:03:22.536Z,0
2018-01-19T07:03:48.050Z,0
2018-01-19T07:04:13.456Z,0
2018-01-19T07:05:42.582Z,0
2018-01-19T07:06:08.040Z,0
2018-01-19T07:06:33.455Z,0
2018-01-19T07:06:59.005Z,0
2018-01-19T07:07:24.431Z,0
2018-01-19T07:07:49.899Z,0
2018-01-19T07:08:15.361Z,0
2018-01-19T07:08:40.821Z,0
2018-01-19T07:09:06.253Z,0
2018-01-19T07:09:31.718Z,0
2018-01-19T07:09:57.188Z,0
2018-01-19T07:10:22.620Z,0
2018-01-19T07:10:48.172Z,0
2018-01-19T07:11:13.650Z,0
2018-01-19T07:11:39.086Z,0
2018-01-19T07:12:04.510Z,0
2018-01-19T07:12:30.037Z,0
2018-01-19T07:12:55.498Z,0
2018-01-19T07:13:20.963Z,0
2018-01-19T07:13:46.416Z,0
2018-01-19T07:14:11.868Z,0
2018-01-19T07:14:37.332Z,0
2018-01-19T07:15:02.792Z,0
2018-01-19T07:15:28.226Z,0
2018-01-19T07:15:53.690Z,0
2018-01-19T07:16:19.179Z,0
2018-01-19T07:16:44.719Z,0
2018-01-19T07:18:08.702Z,0
2018-01-19T07:18:34.166Z,0
2018-01-19T07:18:59.630Z,0
2018-01-19T07:19:25.126Z,0
2018-01-19T07:19:50.615Z,0
2018-01-19T07:20:16.137Z,0
2018-01-19T07:20:41.576Z,0
2018-01-19T07:21:07.079Z,0
2018-01-19T07:21:32.519Z,0
2018-01-19T07:21:57.959Z,0
2018-01-19T07:22:23.460Z,0
2018-01-19T07:22:48.898Z,0
2018-01-19T07:23:14.398Z,0
2018-01-19T07:23:39.890Z,0
2018-01-19T07:24:05.353Z,0
2018-01-19T07:24:30.798Z,0
2018-01-19T07:24:56.390Z,0
2018-01-19T07:25:21.796Z,0
2018-01-19T07:25:47.228Z,0
2018-01-19T07:26:12.691Z,0
2018-01-19T07:26:38.144Z,0
2018-01-19T07:27:03.581Z,0
2018-01-19T07:27:29.066Z,0
2018-01-19T07:27:54.524Z,0
2018-01-19T07:28:20.003Z,0
2018-01-19T07:28:45.442Z,0
2018-01-19T07:29:10.922Z,0
2018-01-19T07:29:36.435Z,0
2018-01-19T07:30:01.897Z,0
2018-01-19T07:30:27.362Z,5
2018-01-19T07:30:52.837Z,5
2018-01-19T07:31:18.366Z,5
2018-01-19T07:31:43.769Z,5
2018-01-19T07:32:09.235Z,5
2018-01-19T07:32:34.708Z,5
2018-01-19T07:33:00.178Z,5
2018-01-19T07:33:25.649Z,5
2018-01-19T07:33:51.113Z,5
2018-01-19T07:34:16.611Z,5
2018-01-19T07:34:42.066Z,5
2018-01-19T07:35:07.566Z,5
2018-01-19T07:35:33.001Z,5
2018-01-19T07:35:58.475Z,5
2018-01-19T07:36:23.933Z,5
2018-01-19T07:36:49.398Z,5
2018-01-19T07:37:14.877Z,5
2018-01-19T07:37:40.338Z,5
2018-01-19T07:38:05.838Z,5
2018-01-19T07:38:31.248Z,5
2018-01-19T07:38:56.725Z,10
2018-01-19T07:39:22.185Z,10
2018-01-19T07:39:47.667Z,10
2018-01-19T07:40:13.132Z,10
2018-01-19T07:40:38.616Z,10
2018-01-19T07:41:04.074Z,10
2018-01-19T07:41:29.526Z,10
2018-01-19T07:41:55.002Z,10
2018-01-19T07:42:20.478Z,10
2018-01-19T07:42:45.915Z,10
2018-01-19T07:43:11.386Z,10
2018-01-19T07:43:36.906Z,10
2018-01-19T07:44:02.395Z,10
2018-01-19T07:44:27.839Z,10
2018-01-19T07:44:53.335Z,10
2018-01-19T07:45:18.794Z,10
2018-01-19T07:45:44.286Z,10
2018-01-19T07:46:09.771Z,10
2018-01-19T07:46:35.247Z,10
2018-01-19T07:47:00.746Z,10
2018-01-19T07:47:26.205Z,10
2018-01-19T07:47:51.714Z,10
2018-01-19T07:48:17.197Z,10
2018-01-19T07:48:42.645Z,10
2018-01-19T07:49:08.124Z,10
2018-01-19T07:49:33.608Z,10
2018-01-19T07:49:59.082Z,10
2018-01-19T07:50:24.676Z,10
2018-01-19T07:50:50.157Z,10
2018-01-19T07:51:15.716Z,10
2018-01-19T07:51:41.197Z,10
2018-01-19T07:53:05.271Z,10
2018-01-19T07:53:30.739Z,10
2018-01-19T07:53:56.234Z,10
2018-01-19T07:54:21.635Z,10
2018-01-19T07:54:47.125Z,10
2018-01-19T07:55:12.620Z,10
2018-01-19T07:55:38.110Z,10
2018-01-19T07:56:03.587Z,10
2018-01-19T07:56:29.064Z,10
2018-01-19T07:56:54.538Z,5
2018-01-19T07:57:20.013Z,5
2018-01-19T07:58:33.839Z,5
2018-01-19T07:58:59.333Z,5
2018-01-19T07:59:24.926Z,5
2018-01-19T07:59:50.272Z,5
2018-01-19T08:00:15.754Z,5
2018-01-19T08:00:41.221Z,5
2018-01-19T08:01:06.669Z,5
2018-01-19T08:01:32.142Z,5
2018-01-19T08:01:57.591Z,5
2018-01-19T08:02:23.064Z,5
2018-01-19T08:02:48.523Z,5
2018-01-19T08:03:14.024Z,5
2018-01-19T08:03:39.484Z,5
2018-01-19T08:04:05.009Z,5
2018-01-19T08:04:30.519Z,10
2018-01-19T08:04:55.932Z,10
2018-01-19T08:05:21.402Z,10
2018-01-19T08:05:46.843Z,10
2018-01-19T08:06:12.317Z,10
2018-01-19T08:06:37.756Z,10
2018-01-19T08:07:03.190Z,10
2018-01-19T08:07:28.647Z,10
2018-01-19T08:07:54.173Z,10
2018-01-19T08:08:19.672Z,10
2018-01-19T08:08:45.151Z,10
2018-01-19T08:09:10.598Z,10
2018-01-19T08:09:36.056Z,10
2018-01-19T08:10:01.522Z,10
2018-01-19T08:10:26.977Z,10
2018-01-19T08:10:52.465Z,10
2018-01-19T08:11:17.925Z,10
2018-01-19T08:11:43.395Z,10
2018-01-19T08:12:08.907Z,10
2018-01-19T08:12:34.378Z,10
2018-01-19T08:12:59.887Z,10
2018-01-19T08:14:23.895Z,10
2018-01-19T08:14:49.387Z,10
2018-01-19T08:15:14.849Z,10
2018-01-19T08:15:40.328Z,10
2018-01-19T08:16:05.795Z,15
2018-01-19T08:17:14.497Z,15
2018-01-19T08:17:39.967Z,15
2018-01-19T08:18:05.442Z,15
2018-01-19T08:18:30.974Z,15
2018-01-19T08:18:56.411Z,15
2018-01-19T08:19:21.862Z,15
2018-01-19T08:19:47.294Z,15
2018-01-19T08:20:12.764Z,15
2018-01-19T08:20:38.286Z,15
2018-01-19T08:21:03.701Z,15
2018-01-19T08:21:29.160Z,15
2018-01-19T08:21:54.688Z,15
2018-01-19T08:22:20.119Z,15
2018-01-19T08:22:45.561Z,15
2018-01-19T08:23:11.033Z,15
2018-01-19T08:23:36.488Z,15
2018-01-19T08:24:01.925Z,15
2018-01-19T08:24:27.413Z,15
2018-01-19T08:24:52.916Z,15
2018-01-19T08:25:18.370Z,15
2018-01-19T08:26:27.061Z,20
2018-01-19T08:26:52.536Z,20
2018-01-19T08:27:18.025Z,20
2018-01-19T08:27:43.508Z,20
2018-01-19T08:28:08.976Z,20
2018-01-19T08:29:22.753Z,25
2018-01-19T08:29:48.255Z,25
2018-01-19T08:30:13.681Z,25
2018-01-19T08:31:42.762Z,25
2018-01-19T08:32:08.235Z,25
2018-01-19T08:32:33.750Z,20
2018-01-19T08:32:59.186Z,25
2018-01-19T08:33:24.644Z,25
2018-01-19T08:33:50.129Z,25
2018-01-19T08:34:15.596Z,25
2018-01-19T08:34:41.056Z,25
2018-01-19T08:35:06.499Z,25
2018-01-19T08:35:31.969Z,25
2018-01-19T08:35:57.440Z,25
2018-01-19T08:36:22.856Z,25
2018-01-19T08:36:48.349Z,30
2018-01-19T08:37:13.808Z,30
2018-01-19T08:37:39.264Z,30
2018-01-19T08:38:04.755Z,30
2018-01-19T08:38:30.214Z,30
2018-01-19T08:38:55.670Z,30
2018-01-19T08:39:21.132Z,30
2018-01-19T08:39:46.593Z,35
2018-01-19T08:40:12.044Z,35
2018-01-19T08:40:37.561Z,35
2018-01-19T08:41:03.002Z,35
2018-01-19T08:41:28.479Z,35
2018-01-19T08:41:53.917Z,35
2018-01-19T08:42:19.404Z,35
2018-01-19T08:42:45.105Z,35
2018-01-19T08:43:10.710Z,30
2018-01-19T08:43:36.219Z,30
2018-01-19T08:44:02.134Z,35
2018-01-19T08:44:27.455Z,30
2018-01-19T08:44:52.924Z,30
2018-01-19T08:45:18.384Z,30
2018-01-19T08:45:43.864Z,35
2018-01-19T08:46:09.298Z,35
2018-01-19T08:46:34.850Z,35
2018-01-19T08:47:00.290Z,35
2018-01-19T08:47:25.719Z,40
2018-01-19T08:47:51.198Z,35
2018-01-19T08:48:16.705Z,40
2018-01-19T08:48:42.194Z,40
2018-01-19T08:49:07.649Z,35
2018-01-19T08:49:33.109Z,35
2018-01-19T08:49:58.587Z,35
2018-01-19T08:50:24.023Z,35
2018-01-19T08:50:49.533Z,35
2018-01-19T08:51:14.966Z,40
2018-01-19T08:51:40.416Z,40
2018-01-19T08:53:09.915Z,45
2018-01-19T08:53:35.376Z,45
2018-01-19T08:54:00.874Z,40
2018-01-19T08:54:26.522Z,40
2018-01-19T08:54:52.019Z,40
2018-01-19T08:55:17.553Z,40
2018-01-19T08:55:42.971Z,40
2018-01-19T08:56:08.556Z,45
2018-01-19T08:56:34.125Z,45
2018-01-19T08:56:59.633Z,50
2018-01-19T08:57:25.089Z,50
2018-01-19T08:57:50.840Z,50
2018-01-19T08:58:16.326Z,50
2018-01-19T08:58:41.846Z,50
2018-01-19T08:59:07.318Z,50
2018-01-19T08:59:32.875Z,50
2018-01-19T08:59:58.326Z,55
2018-01-19T09:00:23.815Z,55
2018-01-19T09:00:49.303Z,55
2018-01-19T09:01:14.738Z,55
2018-01-19T09:01:40.216Z,55
2018-01-19T09:02:05.975Z,55
2018-01-19T09:02:31.446Z,55
2018-01-19T09:02:57.098Z,55
2018-01-19T09:03:22.602Z,60
2018-01-19T09:03:48.119Z,60
2018-01-19T09:04:13.535Z,65
2018-01-19T09:04:39.027Z,65
2018-01-19T09:05:04.519Z,70
2018-01-19T09:05:30.018Z,75
2018-01-19T09:05:55.441Z,80
2018-01-19T09:06:20.949Z,80
2018-01-19T09:06:46.412Z,80
2018-01-19T09:07:11.888Z,80
2018-01-19T09:07:37.436Z,80
2018-01-19T09:08:02.941Z,80
2018-01-19T09:08:28.391Z,75
2018-01-19T09:08:53.863Z,80
2018-01-19T09:09:19.321Z,80
2018-01-19T09:09:44.741Z,80
2018-01-19T09:11:03.661Z,80
2018-01-19T09:11:29.096Z,75
2018-01-19T09:11:54.555Z,75
2018-01-19T09:13:13.516Z,75
2018-01-19T09:13:38.989Z,75
2018-01-19T09:14:04.524Z,80
2018-01-19T09:14:30.041Z,80
2018-01-19T09:14:55.497Z,80
2018-01-19T09:15:20.973Z,80
2018-01-19T09:15:46.438Z,80
2018-01-19T09:16:11.957Z,80
2018-01-19T09:16:37.410Z,80
2018-01-19T09:17:02.857Z,80
2018-01-19T09:17:28.325Z,85
2018-01-19T09:17:53.848Z,90
2018-01-19T09:18:19.244Z,90
2018-01-19T09:18:44.754Z,90
2018-01-19T09:19:10.202Z,90
2018-01-19T09:19:35.796Z,90
2018-01-19T09:20:01.228Z,90
2018-01-19T09:20:26.677Z,90
2018-01-19T09:21:45.562Z,85
2018-01-19T09:22:11.087Z,85
2018-01-19T09:22:36.576Z,80
2018-01-19T09:23:02.045Z,80
2018-01-19T09:23:27.541Z,80
2018-01-19T09:23:52.994Z,80
2018-01-19T09:24:18.463Z,80
2018-01-19T09:24:43.936Z,75
2018-01-19T09:25:09.725Z,75
2018-01-19T09:25:35.247Z,75
2018-01-19T09:26:00.688Z,80
2018-01-19T09:26:26.143Z,80
2018-01-19T09:26:51.642Z,85
2018-01-19T09:27:17.143Z,85
2018-01-19T09:27:42.638Z,85
2018-01-19T09:28:08.066Z,90
2018-01-19T09:28:33.552Z,85
2018-01-19T09:28:59.014Z,80
2018-01-19T09:29:24.560Z,80
2018-01-19T09:29:49.982Z,80
2018-01-19T09:30:15.447Z,80
2018-01-19T09:30:40.889Z,75
2018-01-19T09:31:06.366Z,75
2018-01-19T09:31:31.860Z,75
2018-01-19T09:31:57.314Z,80
2018-01-19T09:32:22.797Z,80
2018-01-19T09:32:48.242Z,80
2018-01-19T09:33:13.700Z,85
2018-01-19T09:33:39.168Z,80
2018-01-19T09:34:04.637Z,80
2018-01-19T09:34:30.112Z,85
2018-01-19T09:34:55.568Z,80
2018-01-19T09:35:20.954Z,85
2018-01-19T09:35:46.420Z,85
2018-01-19T09:36:11.925Z,85
2018-01-19T09:36:37.354Z,85
2018-01-19T09:37:02.811Z,80
2018-01-19T09:37:28.308Z,80
2018-01-19T09:37:53.761Z,80
2018-01-19T09:38:19.256Z,85
2018-01-19T09:38:44.730Z,85
2018-01-19T09:39:10.160Z,85
2018-01-19T09:39:35.623Z,85
2018-01-19T09:40:01.130Z,85
2018-01-19T09:40:26.561Z,85
2018-01-19T09:40:52.041Z,85
2018-01-19T09:41:17.481Z,85
2018-01-19T09:41:42.964Z,80
2018-01-19T09:42:08.476Z,90
2018-01-19T09:42:33.973Z,100
2018-01-19T09:42:59.420Z,105
2018-01-19T09:43:24.876Z,105
2018-01-19T09:43:50.338Z,100
2018-01-19T09:44:15.801Z,105
2018-01-19T09:44:41.232Z,110
2018-01-19T09:45:06.706Z,115
2018-01-19T09:46:20.443Z,110
2018-01-19T09:46:45.940Z,105
2018-01-19T09:47:11.428Z,105
2018-01-19T09:47:36.871Z,110
2018-01-19T09:48:02.362Z,110
2018-01-19T09:48:27.814Z,105
2018-01-19T09:48:53.266Z,110
2018-01-19T09:49:18.734Z,110
2018-01-19T09:49:44.167Z,110
2018-01-19T09:50:09.648Z,105
2018-01-19T09:50:35.110Z,110
2018-01-19T09:51:00.575Z,110
2018-01-19T09:51:26.013Z,120
2018-01-19T09:51:51.475Z,110
2018-01-19T09:52:16.951Z,105
2018-01-19T09:52:42.419Z,105
2018-01-19T09:53:07.903Z,100
2018-01-19T09:53:33.393Z,100
2018-01-19T09:53:58.827Z,95
2018-01-19T09:54:24.323Z,95
2018-01-19T09:54:49.765Z,95
2018-01-19T09:55:15.222Z,95
2018-01-19T09:55:40.717Z,95
2018-01-19T09:56:06.157Z,95
2018-01-19T09:56:31.594Z,90
2018-01-19T09:56:57.057Z,75
2018-01-19T09:57:22.542Z,65
2018-01-19T09:57:48.032Z,65
2018-01-19T09:58:13.465Z,70
2018-01-19T09:58:38.937Z,75
2018-01-19T09:59:04.400Z,80
2018-01-19T09:59:29.888Z,85
2018-01-19T09:59:55.333Z,100
2018-01-19T10:00:20.989Z,85
2018-01-19T10:00:46.404Z,90
2018-01-19T10:01:11.853Z,95
2018-01-19T10:01:37.287Z,100
2018-01-19T10:02:02.750Z,100
2018-01-19T10:02:28.216Z,100
2018-01-19T10:02:53.674Z,115
2018-01-19T10:03:19.252Z,125
2018-01-19T10:03:44.641Z,125
2018-01-19T10:04:10.109Z,125
2018-01-19T10:04:35.560Z,120
2018-01-19T10:05:50.363Z,115
2018-01-19T10:06:15.813Z,115
2018-01-19T10:06:41.294Z,115
2018-01-19T10:08:10.399Z,110
2018-01-19T10:08:35.842Z,110
2018-01-19T10:09:01.325Z,115
2018-01-19T10:09:26.770Z,115
2018-01-19T10:09:52.188Z,110
2018-01-19T10:10:17.705Z,110
2018-01-19T10:10:43.194Z,110
2018-01-19T10:11:08.662Z,105
2018-01-19T10:11:34.157Z,105
2018-01-19T10:11:59.635Z,105
2018-01-19T10:12:25.048Z,105
2018-01-19T10:12:50.513Z,105
2018-01-19T10:13:16.009Z,105
2018-01-19T10:13:41.610Z,100
2018-01-19T10:14:07.082Z,105
2018-01-19T10:14:32.617Z,105
2018-01-19T10:14:58.147Z,100
2018-01-19T10:15:23.611Z,95
2018-01-19T10:15:49.107Z,100
2018-01-19T10:16:14.595Z,100
2018-01-19T10:16:40.115Z,105
2018-01-19T10:17:05.555Z,105
2018-01-19T10:17:31.011Z,105
2018-01-19T10:17:56.490Z,105
2018-01-19T10:18:21.970Z,110
2018-01-19T10:18:47.480Z,105
2018-01-19T10:19:12.911Z,105
2018-01-19T10:19:38.387Z,105
2018-01-19T10:20:03.829Z,100
2018-01-19T10:20:29.263Z,100
2018-01-19T10:20:54.702Z,95
2018-01-19T10:21:20.149Z,95
2018-01-19T10:21:45.678Z,90
2018-01-19T10:22:11.149Z,85
2018-01-19T10:22:36.638Z,85
2018-01-19T10:23:02.186Z,80
2018-01-19T10:23:27.668Z,80
2018-01-19T10:23:53.165Z,95
2018-01-19T10:24:18.672Z,105
2018-01-19T10:24:44.165Z,100
2018-01-19T10:25:09.606Z,95
2018-01-19T10:25:35.086Z,90
2018-01-19T10:26:00.610Z,85
2018-01-19T10:26:26.129Z,85
2018-01-19T10:26:51.693Z,85
2018-01-19T10:27:17.363Z,85
2018-01-19T10:27:42.842Z,90
2018-01-19T10:28:08.297Z,90
2018-01-19T10:28:33.820Z,95
2018-01-19T10:28:59.255Z,100
2018-01-19T10:29:24.745Z,105
2018-01-19T10:29:50.231Z,105
2018-01-19T10:30:15.675Z,110
2018-01-19T10:30:41.164Z,110
2018-01-19T10:31:06.706Z,110
2018-01-19T10:31:32.219Z,115
2018-01-19T10:31:57.668Z,110
2018-01-19T10:32:23.151Z,105
2018-01-19T10:32:48.619Z,110
2018-01-19T10:33:14.163Z,125
2018-01-19T10:33:39.673Z,135
2018-01-19T10:34:05.270Z,110
2018-01-19T10:34:30.795Z,105
2018-01-19T10:34:56.259Z,115
2018-01-19T10:35:21.809Z,125
2018-01-19T10:35:47.292Z,135
2018-01-19T10:36:12.793Z,150
2018-01-19T10:36:38.273Z,185
2018-01-19T10:37:03.740Z,170
2018-01-19T10:38:27.797Z,130
2018-01-19T10:38:53.274Z,130
2018-01-19T10:39:18.750Z,150
2018-01-19T10:39:44.297Z,140
2018-01-19T10:40:09.858Z,125
2018-01-19T10:40:35.324Z,135
2018-01-19T10:41:00.903Z,140
2018-01-19T10:41:26.387Z,140
2018-01-19T10:41:51.911Z,125
2018-01-19T10:42:17.428Z,110
2018-01-19T10:42:42.979Z,100
2018-01-19T10:43:08.488Z,105
2018-01-19T10:43:33.939Z,100
2018-01-19T10:43:59.432Z,100
2018-01-19T10:44:24.973Z,100
2018-01-19T10:44:50.470Z,100
2018-01-19T10:45:16.041Z,95
2018-01-19T10:45:41.510Z,105
2018-01-19T10:46:07.028Z,100
2018-01-19T10:47:36.303Z,110
2018-01-19T10:48:01.817Z,140
2018-01-19T10:48:27.278Z,165
2018-01-19T10:48:52.755Z,170
2018-01-19T10:49:18.303Z,155
2018-01-19T10:49:43.722Z,150
2018-01-19T10:50:09.203Z,160
2018-01-19T10:50:34.716Z,155
2018-01-19T10:51:00.202Z,140
2018-01-19T10:51:25.697Z,120
2018-01-19T10:51:51.196Z,110
2018-01-19T10:52:16.689Z,105
2018-01-19T10:52:42.244Z,105
2018-01-19T10:53:07.826Z,115
2018-01-19T10:53:33.310Z,110
2018-01-19T10:53:58.814Z,95
2018-01-19T10:54:24.316Z,100
2018-01-19T10:54:49.808Z,105
2018-01-19T10:55:15.263Z,105
2018-01-19T10:55:40.747Z,90
2018-01-19T10:56:06.253Z,95
2018-01-19T10:56:31.722Z,105
2018-01-19T10:56:57.244Z,120
2018-01-19T10:57:22.687Z,115
2018-01-19T10:57:48.281Z,100
2018-01-19T10:58:13.676Z,90
2018-01-19T10:58:39.163Z,85
2018-01-19T10:59:04.677Z,85
2018-01-19T10:59:30.161Z,95
2018-01-19T10:59:55.614Z,100
2018-01-19T11:00:21.149Z,95
2018-01-19T11:00:46.649Z,100
2018-01-19T11:01:12.163Z,100
2018-01-19T11:01:37.646Z,105
2018-01-19T11:02:03.145Z,115
2018-01-19T11:02:28.633Z,105
2018-01-19T11:02:54.133Z,100
2018-01-19T11:03:19.610Z,100
2018-01-19T11:03:45.109Z,100
2018-01-19T11:04:10.630Z,95
2018-01-19T11:04:36.118Z,95
2018-01-19T11:05:01.576Z,100
2018-01-19T11:05:27.070Z,100
2018-01-19T11:05:52.536Z,95
2018-01-19T11:06:18.039Z,95
2018-01-19T11:06:43.518Z,90
2018-01-19T11:07:09.031Z,90
2018-01-19T11:07:34.518Z,90
2018-01-19T11:08:00.039Z,85
2018-01-19T11:08:25.455Z,85
2018-01-19T11:08:50.964Z,90
2018-01-19T11:09:16.475Z,90
2018-01-19T11:09:41.994Z,90
2018-01-19T11:11:06.025Z,105
2018-01-19T11:11:31.518Z,105
2018-01-19T11:11:57.020Z,110
2018-01-19T11:12:22.516Z,125
2018-01-19T11:13:36.370Z,155
2018-01-19T11:14:01.884Z,140
2018-01-19T11:14:27.335Z,130
2018-01-19T11:14:52.805Z,135
2018-01-19T11:15:18.299Z,135
2018-01-19T11:15:43.794Z,130
2018-01-19T11:16:09.286Z,115
2018-01-19T11:17:38.370Z,140
2018-01-19T11:18:03.856Z,135
2018-01-19T11:18:29.362Z,130
2018-01-19T11:18:54.857Z,130
2018-01-19T11:19:20.360Z,110
2018-01-19T11:19:45.866Z,105
2018-01-19T11:20:11.359Z,110
2018-01-19T11:20:36.845Z,120
2018-01-19T11:21:02.305Z,140
2018-01-19T11:22:11.009Z,140
2018-01-19T11:22:36.494Z,125
2018-01-19T11:23:02.042Z,110
2018-01-19T11:23:27.546Z,115
2018-01-19T11:23:53.077Z,120
2018-01-19T11:24:18.583Z,125
2018-01-19T11:24:44.039Z,125
2018-01-19T11:25:09.555Z,120
2018-01-19T11:25:35.048Z,110
2018-01-19T11:26:00.553Z,100
2018-01-19T11:26:26.084Z,95
2018-01-19T11:26:51.593Z,90
2018-01-19T11:27:17.072Z,90
2018-01-19T11:27:42.530Z,95
2018-01-19T11:28:08.061Z,90
2018-01-19T11:29:26.973Z,125
2018-01-19T11:29:52.474Z,125
2018-01-19T11:30:17.977Z,115
2018-01-19T11:30:43.447Z,105
2018-01-19T11:31:08.956Z,105
2018-01-19T11:32:17.676Z,100
2018-01-19T11:32:43.159Z,105
2018-01-19T11:33:08.646Z,110
2018-01-19T11:33:34.116Z,135
2018-01-19T11:33:59.671Z,150
2018-01-19T11:34:25.103Z,165
2018-01-19T11:34:50.611Z,175
2018-01-19T11:35:16.089Z,175
2018-01-19T11:35:41.595Z,155
2018-01-19T11:36:07.041Z,130
2018-01-19T11:36:32.549Z,125
2018-01-19T11:36:58.044Z,115
2018-01-19T11:37:23.534Z,100
2018-01-19T11:37:49.036Z,105
2018-01-19T11:38:14.527Z,105
2018-01-19T11:38:40.011Z,105
2018-01-19T11:39:05.490Z,105
2018-01-19T11:39:30.964Z,110
2018-01-19T11:39:56.485Z,115
2018-01-19T11:40:21.971Z,125
2018-01-19T11:40:47.476Z,130
2018-01-19T11:41:12.978Z,140
2018-01-19T11:41:38.435Z,145
2018-01-19T11:42:03.934Z,145
2018-01-19T11:42:29.437Z,145
2018-01-19T11:42:54.981Z,145
2018-01-19T11:43:20.451Z,150
2018-01-19T11:43:45.902Z,150